sensor_id;sensor_type;location;lat;lon;timestamp;temperature;humidity
74178;DHT22;62540;48.456;-4.456;2023-01-15T00:00:58;9.44;64.88
74178;DHT22;62540;48.456;-4.456;2023-01-15T00:03:24;9.41;64.79
74178;DHT22;62540;48.456;-4.456;2023-01-15T00:05:49;9.36;66.96
74178;DHT22;62540;48.456;-4.456;2023-01-15T00:08:15;9.40;67.49
74178;DHT22;62540;48.456;-4.456;2023-01-15T00:10:40;9.43;68.65
74178;DHT22;62540;48.456;-4.456;2023-01-15T00:13:06;9.41;68.88
74178;DHT22;62540;48.456;-4.456;2023-01-15T00:15:31;9.39;68.58
74178;DHT22;62540;48.456;-4.456;2023-01-15T00:17:56;9.26;66.17
74178;DHT22;62540;48.456;-4.456;2023-01-15T00:20:22;9.20;64.85
74178;DHT22;62540;48.456;-4.456;2023-01-15T00:22:47;9.10;65.90
74178;DHT22;62540;48.456;-4.456;2023-01-15T00:25:13;9.01;68.04
74178;DHT22;62540;48.456;-4.456;2023-01-15T00:27:57;9.03;67.96
74178;DHT22;62540;48.456;-4.456;2023-01-15T00:30:22;9.03;69.05
74178;DHT22;62540;48.456;-4.456;2023-01-15T00:32:49;9.02;69.57
74178;DHT22;62540;48.456;-4.456;2023-01-15T00:35:17;9.02;69.98
74178;DHT22;62540;48.456;-4.456;2023-01-15T00:37:43;8.95;70.50
74178;DHT22;62540;48.456;-4.456;2023-01-15T00:40:09;8.99;70.86
74178;DHT22;62540;48.456;-4.456;2023-01-15T00:42:35;9.01;70.42
74178;DHT22;62540;48.456;-4.456;2023-01-15T00:45:00;9.01;70.74
74178;DHT22;62540;48.456;-4.456;2023-01-15T00:47:34;9.02;70.84
74178;DHT22;62540;48.456;-4.456;2023-01-15T00:50:00;9.06;70.80
74178;DHT22;62540;48.456;-4.456;2023-01-15T00:52:25;9.10;70.88
74178;DHT22;62540;48.456;-4.456;2023-01-15T00:54:50;9.10;71.08
74178;DHT22;62540;48.456;-4.456;2023-01-15T00:57:18;9.08;71.21
74178;DHT22;62540;48.456;-4.456;2023-01-15T00:59:44;9.08;71.26
74178;DHT22;62540;48.456;-4.456;2023-01-15T01:02:09;9.03;69.69
74178;DHT22;62540;48.456;-4.456;2023-01-15T01:04:34;9.02;69.70
74178;DHT22;62540;48.456;-4.456;2023-01-15T01:07:00;8.93;66.87
74178;DHT22;62540;48.456;-4.456;2023-01-15T01:09:25;8.93;66.83
74178;DHT22;62540;48.456;-4.456;2023-01-15T01:11:50;8.89;64.22
74178;DHT22;62540;48.456;-4.456;2023-01-15T01:14:16;8.91;64.59
74178;DHT22;62540;48.456;-4.456;2023-01-15T01:16:41;8.85;63.98
74178;DHT22;62540;48.456;-4.456;2023-01-15T01:19:10;8.92;64.11
74178;DHT22;62540;48.456;-4.456;2023-01-15T01:21:37;8.93;64.58
74178;DHT22;62540;48.456;-4.456;2023-01-15T01:24:03;8.95;64.06
74178;DHT22;62540;48.456;-4.456;2023-01-15T01:26:29;8.96;65.12
74178;DHT22;62540;48.456;-4.456;2023-01-15T01:28:55;8.99;64.28
74178;DHT22;62540;48.456;-4.456;2023-01-15T01:31:22;8.89;64.28
74178;DHT22;62540;48.456;-4.456;2023-01-15T01:33:49;8.95;65.59
74178;DHT22;62540;48.456;-4.456;2023-01-15T01:36:14;8.96;65.91
74178;DHT22;62540;48.456;-4.456;2023-01-15T01:38:40;8.95;66.98
74178;DHT22;62540;48.456;-4.456;2023-01-15T01:41:05;8.92;67.51
74178;DHT22;62540;48.456;-4.456;2023-01-15T01:43:55;8.83;67.75
74178;DHT22;62540;48.456;-4.456;2023-01-15T01:46:20;8.85;67.56
74178;DHT22;62540;48.456;-4.456;2023-01-15T01:48:48;8.79;67.61
74178;DHT22;62540;48.456;-4.456;2023-01-15T01:51:15;8.78;68.18
74178;DHT22;62540;48.456;-4.456;2023-01-15T01:53:42;8.81;68.65
74178;DHT22;62540;48.456;-4.456;2023-01-15T01:56:08;8.72;68.40
74178;DHT22;62540;48.456;-4.456;2023-01-15T01:58:35;8.73;67.91
74178;DHT22;62540;48.456;-4.456;2023-01-15T02:01:01;8.69;67.65
74178;DHT22;62540;48.456;-4.456;2023-01-15T02:03:31;8.64;66.38
74178;DHT22;62540;48.456;-4.456;2023-01-15T02:06:00;8.58;65.51
74178;DHT22;62540;48.456;-4.456;2023-01-15T02:08:27;8.55;64.17
74178;DHT22;62540;48.456;-4.456;2023-01-15T02:10:54;8.51;64.04
74178;DHT22;62540;48.456;-4.456;2023-01-15T02:13:39;8.50;64.67
74178;DHT22;62540;48.456;-4.456;2023-01-15T02:16:15;8.51;64.43
74178;DHT22;62540;48.456;-4.456;2023-01-15T02:19:10;8.51;66.05
74178;DHT22;62540;48.456;-4.456;2023-01-15T02:27:33;8.48;66.94
74178;DHT22;62540;48.456;-4.456;2023-01-15T02:30:16;8.47;66.73
74178;DHT22;62540;48.456;-4.456;2023-01-15T02:32:45;8.50;67.02
74178;DHT22;62540;48.456;-4.456;2023-01-15T02:35:20;8.50;67.14
74178;DHT22;62540;48.456;-4.456;2023-01-15T02:37:50;8.54;66.54
74178;DHT22;62540;48.456;-4.456;2023-01-15T02:40:20;8.58;66.95
74178;DHT22;62540;48.456;-4.456;2023-01-15T02:42:48;8.60;66.67
74178;DHT22;62540;48.456;-4.456;2023-01-15T02:45:16;8.58;67.17
74178;DHT22;62540;48.456;-4.456;2023-01-15T02:47:45;8.58;67.45
74178;DHT22;62540;48.456;-4.456;2023-01-15T02:50:16;8.62;67.85
74178;DHT22;62540;48.456;-4.456;2023-01-15T02:52:46;8.58;67.99
74178;DHT22;62540;48.456;-4.456;2023-01-15T02:55:18;8.60;68.31
74178;DHT22;62540;48.456;-4.456;2023-01-15T02:57:46;8.65;68.40
74178;DHT22;62540;48.456;-4.456;2023-01-15T03:00:14;8.68;68.01
74178;DHT22;62540;48.456;-4.456;2023-01-15T03:02:49;8.64;67.98
74178;DHT22;62540;48.456;-4.456;2023-01-15T03:05:30;8.64;67.84
74178;DHT22;62540;48.456;-4.456;2023-01-15T03:08:00;8.65;67.11
74178;DHT22;62540;48.456;-4.456;2023-01-15T03:13:04;8.69;66.51
74178;DHT22;62540;48.456;-4.456;2023-01-15T03:15:55;8.75;66.95
74178;DHT22;62540;48.456;-4.456;2023-01-15T03:18:55;8.79;68.02
74178;DHT22;62540;48.456;-4.456;2023-01-15T03:24:05;8.88;68.03
74178;DHT22;62540;48.456;-4.456;2023-01-15T03:26:32;8.88;67.86
74178;DHT22;62540;48.456;-4.456;2023-01-15T03:28:58;8.85;67.82
74178;DHT22;62540;48.456;-4.456;2023-01-15T03:31:24;8.89;68.08
74178;DHT22;62540;48.456;-4.456;2023-01-15T03:33:50;8.92;67.72
74178;DHT22;62540;48.456;-4.456;2023-01-15T03:36:15;8.92;67.35
74178;DHT22;62540;48.456;-4.456;2023-01-15T03:38:41;8.96;67.61
74178;DHT22;62540;48.456;-4.456;2023-01-15T03:49:09;8.96;66.30
74178;DHT22;62540;48.456;-4.456;2023-01-15T03:52:01;9.05;66.31
74178;DHT22;62540;48.456;-4.456;2023-01-15T03:57:25;9.12;67.19
74178;DHT22;62540;48.456;-4.456;2023-01-15T03:59:56;9.13;67.97
74178;DHT22;62540;48.456;-4.456;2023-01-15T04:02:22;9.16;68.23
74178;DHT22;62540;48.456;-4.456;2023-01-15T04:04:50;9.19;68.46
74178;DHT22;62540;48.456;-4.456;2023-01-15T04:07:17;9.20;68.40
74178;DHT22;62540;48.456;-4.456;2023-01-15T04:09:42;9.20;68.54
74178;DHT22;62540;48.456;-4.456;2023-01-15T04:12:08;9.23;67.67
74178;DHT22;62540;48.456;-4.456;2023-01-15T04:14:34;9.23;66.97
74178;DHT22;62540;48.456;-4.456;2023-01-15T04:17:00;9.26;66.50
74178;DHT22;62540;48.456;-4.456;2023-01-15T04:19:25;9.23;66.22
74178;DHT22;62540;48.456;-4.456;2023-01-15T04:21:50;9.30;65.24
74178;DHT22;62540;48.456;-4.456;2023-01-15T04:24:16;9.30;65.11
74178;DHT22;62540;48.456;-4.456;2023-01-15T04:26:41;9.29;65.70
74178;DHT22;62540;48.456;-4.456;2023-01-15T04:29:07;9.29;66.18
74178;DHT22;62540;48.456;-4.456;2023-01-15T04:31:32;9.34;66.60
74178;DHT22;62540;48.456;-4.456;2023-01-15T04:34:00;9.34;67.10
74178;DHT22;62540;48.456;-4.456;2023-01-15T04:36:25;9.33;66.81
74178;DHT22;62540;48.456;-4.456;2023-01-15T04:38:50;9.34;66.51
74178;DHT22;62540;48.456;-4.456;2023-01-15T04:41:16;9.33;66.30
74178;DHT22;62540;48.456;-4.456;2023-01-15T04:44:00;9.33;66.40
74178;DHT22;62540;48.456;-4.456;2023-01-15T04:46:39;9.31;64.49
74178;DHT22;62540;48.456;-4.456;2023-01-15T04:49:08;9.26;64.44
74178;DHT22;62540;48.456;-4.456;2023-01-15T04:51:34;9.24;64.27
74178;DHT22;62540;48.456;-4.456;2023-01-15T04:54:03;9.26;64.11
74178;DHT22;62540;48.456;-4.456;2023-01-15T04:56:29;9.27;63.86
74178;DHT22;62540;48.456;-4.456;2023-01-15T04:58:58;9.26;65.07
74178;DHT22;62540;48.456;-4.456;2023-01-15T05:01:23;9.19;65.80
74178;DHT22;62540;48.456;-4.456;2023-01-15T05:03:48;9.12;64.66
74178;DHT22;62540;48.456;-4.456;2023-01-15T05:06:14;9.16;64.81
74178;DHT22;62540;48.456;-4.456;2023-01-15T05:08:39;9.18;65.17
74178;DHT22;62540;48.456;-4.456;2023-01-15T05:11:06;9.15;65.31
74178;DHT22;62540;48.456;-4.456;2023-01-15T05:13:32;9.13;65.53
74178;DHT22;62540;48.456;-4.456;2023-01-15T05:16:15;9.12;65.71
74178;DHT22;62540;48.456;-4.456;2023-01-15T05:18:42;9.08;65.80
74178;DHT22;62540;48.456;-4.456;2023-01-15T05:21:22;9.05;66.79
74178;DHT22;62540;48.456;-4.456;2023-01-15T05:23:50;9.08;67.18
74178;DHT22;62540;48.456;-4.456;2023-01-15T05:26:16;9.08;67.55
74178;DHT22;62540;48.456;-4.456;2023-01-15T05:28:42;9.06;67.93
74178;DHT22;62540;48.456;-4.456;2023-01-15T05:31:10;9.06;68.31
74178;DHT22;62540;48.456;-4.456;2023-01-15T05:33:36;9.08;68.18
74178;DHT22;62540;48.456;-4.456;2023-01-15T05:36:13;9.18;68.22
74178;DHT22;62540;48.456;-4.456;2023-01-15T05:38:39;9.15;68.15
74178;DHT22;62540;48.456;-4.456;2023-01-15T05:41:13;9.18;68.40
74178;DHT22;62540;48.456;-4.456;2023-01-15T05:44:03;9.13;71.27
74178;DHT22;62540;48.456;-4.456;2023-01-15T05:46:30;9.12;71.82
74178;DHT22;62540;48.456;-4.456;2023-01-15T05:49:03;9.15;71.42
74178;DHT22;62540;48.456;-4.456;2023-01-15T05:51:29;9.13;70.69
74178;DHT22;62540;48.456;-4.456;2023-01-15T05:53:56;9.10;70.80
74178;DHT22;62540;48.456;-4.456;2023-01-15T05:56:22;9.09;71.03
74178;DHT22;62540;48.456;-4.456;2023-01-15T05:58:47;9.09;71.09
74178;DHT22;62540;48.456;-4.456;2023-01-15T06:01:13;9.06;71.21
74178;DHT22;62540;48.456;-4.456;2023-01-15T06:03:39;9.03;71.40
74178;DHT22;62540;48.456;-4.456;2023-01-15T06:06:06;9.06;71.63
74178;DHT22;62540;48.456;-4.456;2023-01-15T06:08:32;9.12;71.51
74178;DHT22;62540;48.456;-4.456;2023-01-15T06:10:57;9.10;70.35
74178;DHT22;62540;48.456;-4.456;2023-01-15T06:13:23;9.13;69.82
74178;DHT22;62540;48.456;-4.456;2023-01-15T06:15:48;9.10;69.62
74178;DHT22;62540;48.456;-4.456;2023-01-15T06:18:14;9.13;69.49
74178;DHT22;62540;48.456;-4.456;2023-01-15T06:20:40;9.18;69.44
74178;DHT22;62540;48.456;-4.456;2023-01-15T06:23:07;9.18;69.49
74178;DHT22;62540;48.456;-4.456;2023-01-15T06:25:33;9.18;68.92
74178;DHT22;62540;48.456;-4.456;2023-01-15T06:28:06;9.20;68.79
74178;DHT22;62540;48.456;-4.456;2023-01-15T06:30:33;9.23;69.18
74178;DHT22;62540;48.456;-4.456;2023-01-15T06:32:59;9.13;69.61
74178;DHT22;62540;48.456;-4.456;2023-01-15T06:35:25;9.09;70.54
74178;DHT22;62540;48.456;-4.456;2023-01-15T06:37:51;9.01;70.71
74178;DHT22;62540;48.456;-4.456;2023-01-15T06:40:17;8.92;71.24
74178;DHT22;62540;48.456;-4.456;2023-01-15T06:42:42;8.88;71.98
74178;DHT22;62540;48.456;-4.456;2023-01-15T06:45:36;8.86;71.44
74178;DHT22;62540;48.456;-4.456;2023-01-15T06:48:21;8.78;71.98
74178;DHT22;62540;48.456;-4.456;2023-01-15T06:50:46;8.73;72.21
74178;DHT22;62540;48.456;-4.456;2023-01-15T06:53:11;8.67;72.36
74178;DHT22;62540;48.456;-4.456;2023-01-15T06:55:38;8.57;72.75
74178;DHT22;62540;48.456;-4.456;2023-01-15T06:58:03;8.51;72.75
74178;DHT22;62540;48.456;-4.456;2023-01-15T07:00:29;8.60;72.41
74178;DHT22;62540;48.456;-4.456;2023-01-15T07:02:54;8.57;70.81
74178;DHT22;62540;48.456;-4.456;2023-01-15T07:05:20;8.61;70.96
74178;DHT22;62540;48.456;-4.456;2023-01-15T07:07:45;8.60;69.60
74178;DHT22;62540;48.456;-4.456;2023-01-15T07:10:10;8.52;68.55
74178;DHT22;62540;48.456;-4.456;2023-01-15T07:12:36;8.54;68.64
74178;DHT22;62540;48.456;-4.456;2023-01-15T07:15:01;8.52;68.24
74178;DHT22;62540;48.456;-4.456;2023-01-15T07:17:27;8.50;68.06
74178;DHT22;62540;48.456;-4.456;2023-01-15T07:19:52;8.43;68.36
74178;DHT22;62540;48.456;-4.456;2023-01-15T07:22:17;8.43;68.85
74178;DHT22;62540;48.456;-4.456;2023-01-15T07:24:43;8.43;69.67
74178;DHT22;62540;48.456;-4.456;2023-01-15T07:27:08;8.38;70.68
74178;DHT22;62540;48.456;-4.456;2023-01-15T07:29:33;8.33;70.52
74178;DHT22;62540;48.456;-4.456;2023-01-15T07:31:59;8.31;71.09
74178;DHT22;62540;48.456;-4.456;2023-01-15T07:34:24;8.33;71.33
74178;DHT22;62540;48.456;-4.456;2023-01-15T07:36:50;8.27;70.87
74178;DHT22;62540;48.456;-4.456;2023-01-15T07:39:15;8.24;70.86
74178;DHT22;62540;48.456;-4.456;2023-01-15T07:41:41;8.24;71.23
74178;DHT22;62540;48.456;-4.456;2023-01-15T07:44:25;8.24;71.33
74178;DHT22;62540;48.456;-4.456;2023-01-15T07:47:20;8.24;71.96
74178;DHT22;62540;48.456;-4.456;2023-01-15T07:50:07;8.23;72.14
74178;DHT22;62540;48.456;-4.456;2023-01-15T07:52:33;8.20;72.27
74178;DHT22;62540;48.456;-4.456;2023-01-15T07:54:58;8.27;71.97
74178;DHT22;62540;48.456;-4.456;2023-01-15T07:57:25;8.30;71.80
74178;DHT22;62540;48.456;-4.456;2023-01-15T07:59:50;8.34;71.97
74178;DHT22;62540;48.456;-4.456;2023-01-15T08:02:16;8.38;72.74
74178;DHT22;62540;48.456;-4.456;2023-01-15T08:04:42;8.34;73.01
74178;DHT22;62540;48.456;-4.456;2023-01-15T08:07:08;8.36;73.67
74178;DHT22;62540;48.456;-4.456;2023-01-15T08:09:34;8.37;73.29
74178;DHT22;62540;48.456;-4.456;2023-01-15T08:12:01;8.34;73.09
74178;DHT22;62540;48.456;-4.456;2023-01-15T08:14:56;8.33;72.96
74178;DHT22;62540;48.456;-4.456;2023-01-15T08:17:46;8.31;73.12
74178;DHT22;62540;48.456;-4.456;2023-01-15T08:22:42;8.33;72.62
74178;DHT22;62540;48.456;-4.456;2023-01-15T08:25:10;8.31;72.59
74178;DHT22;62540;48.456;-4.456;2023-01-15T08:27:36;8.33;72.30
74178;DHT22;62540;48.456;-4.456;2023-01-15T08:30:04;8.38;72.33
74178;DHT22;62540;48.456;-4.456;2023-01-15T08:32:30;8.41;72.17
74178;DHT22;62540;48.456;-4.456;2023-01-15T08:34:55;8.43;72.40
74178;DHT22;62540;48.456;-4.456;2023-01-15T08:37:21;8.45;72.79
74178;DHT22;62540;48.456;-4.456;2023-01-15T08:39:46;8.51;73.41
74178;DHT22;62540;48.456;-4.456;2023-01-15T08:42:12;8.51;73.82
74178;DHT22;62540;48.456;-4.456;2023-01-15T08:44:37;8.51;74.07
74178;DHT22;62540;48.456;-4.456;2023-01-15T08:47:02;8.50;74.08
74178;DHT22;62540;48.456;-4.456;2023-01-15T08:49:28;8.54;73.72
74178;DHT22;62540;48.456;-4.456;2023-01-15T08:51:53;8.55;73.63
74178;DHT22;62540;48.456;-4.456;2023-01-15T08:54:20;8.61;73.91
74178;DHT22;62540;48.456;-4.456;2023-01-15T08:56:46;8.61;74.25
74178;DHT22;62540;48.456;-4.456;2023-01-15T08:59:12;8.76;74.42
74178;DHT22;62540;48.456;-4.456;2023-01-15T09:01:38;8.86;74.49
74178;DHT22;62540;48.456;-4.456;2023-01-15T09:04:05;8.91;74.65
74178;DHT22;62540;48.456;-4.456;2023-01-15T09:06:31;8.95;74.35
74178;DHT22;62540;48.456;-4.456;2023-01-15T09:08:58;8.98;73.94
74178;DHT22;62540;48.456;-4.456;2023-01-15T09:11:24;8.95;73.49
74178;DHT22;62540;48.456;-4.456;2023-01-15T09:13:49;8.96;73.29
74178;DHT22;62540;48.456;-4.456;2023-01-15T09:16:16;8.96;73.27
74178;DHT22;62540;48.456;-4.456;2023-01-15T09:18:41;8.96;72.95
74178;DHT22;62540;48.456;-4.456;2023-01-15T09:21:07;8.99;71.96
74178;DHT22;62540;48.456;-4.456;2023-01-15T09:23:33;8.98;71.00
74178;DHT22;62540;48.456;-4.456;2023-01-15T09:26:01;8.89;71.42
74178;DHT22;62540;48.456;-4.456;2023-01-15T09:28:30;8.92;71.84
74178;DHT22;62540;48.456;-4.456;2023-01-15T09:30:55;8.92;71.79
74178;DHT22;62540;48.456;-4.456;2023-01-15T09:33:21;8.98;72.27
74178;DHT22;62540;48.456;-4.456;2023-01-15T09:35:47;9.13;72.55
74178;DHT22;62540;48.456;-4.456;2023-01-15T09:38:14;9.22;72.61
74178;DHT22;62540;48.456;-4.456;2023-01-15T09:43:26;9.46;72.70
74178;DHT22;62540;48.456;-4.456;2023-01-15T09:46:24;9.52;72.34
74178;DHT22;62540;48.456;-4.456;2023-01-15T09:49:13;9.58;70.35
74178;DHT22;62540;48.456;-4.456;2023-01-15T09:52:12;9.62;69.81
74178;DHT22;62540;48.456;-4.456;2023-01-15T09:55:19;9.62;68.33
74178;DHT22;62540;48.456;-4.456;2023-01-15T09:57:49;9.61;68.32
74178;DHT22;62540;48.456;-4.456;2023-01-15T10:00:21;9.71;68.95
74178;DHT22;62540;48.456;-4.456;2023-01-15T10:02:58;9.77;69.08
74178;DHT22;62540;48.456;-4.456;2023-01-15T10:08:29;9.79;68.18
74178;DHT22;62540;48.456;-4.456;2023-01-15T10:13:51;9.79;68.32
74178;DHT22;62540;48.456;-4.456;2023-01-15T10:16:23;9.92;68.72
74178;DHT22;62540;48.456;-4.456;2023-01-15T10:18:50;10.06;68.84
74178;DHT22;62540;48.456;-4.456;2023-01-15T10:21:30;10.29;68.95
74178;DHT22;62540;48.456;-4.456;2023-01-15T10:26:57;10.55;67.32
74178;DHT22;62540;48.456;-4.456;2023-01-15T10:37:56;10.50;66.29
74178;DHT22;62540;48.456;-4.456;2023-01-15T10:48:22;10.94;67.87
74178;DHT22;62540;48.456;-4.456;2023-01-15T10:50:48;11.19;67.71
74178;DHT22;62540;48.456;-4.456;2023-01-15T10:55:52;11.49;65.05
74178;DHT22;62540;48.456;-4.456;2023-01-15T10:58:56;11.72;64.67
74178;DHT22;62540;48.456;-4.456;2023-01-15T11:01:24;11.83;64.25
74178;DHT22;62540;48.456;-4.456;2023-01-15T11:03:51;11.94;63.51
74178;DHT22;62540;48.456;-4.456;2023-01-15T11:06:20;12.11;63.47
74178;DHT22;62540;48.456;-4.456;2023-01-15T11:08:54;12.23;62.22
74178;DHT22;62540;48.456;-4.456;2023-01-15T11:11:43;12.28;61.21
74178;DHT22;62540;48.456;-4.456;2023-01-15T11:17:22;12.44;62.19
74178;DHT22;62540;48.456;-4.456;2023-01-15T11:20:22;12.37;62.76
74178;DHT22;62540;48.456;-4.456;2023-01-15T11:22:49;12.17;65.45
74178;DHT22;62540;48.456;-4.456;2023-01-15T11:25:24;12.32;67.71
74178;DHT22;62540;48.456;-4.456;2023-01-15T11:27:51;12.34;66.99
74178;DHT22;62540;48.456;-4.456;2023-01-15T11:30:27;12.25;65.73
74178;DHT22;62540;48.456;-4.456;2023-01-15T11:32:55;12.37;66.56
74178;DHT22;62540;48.456;-4.456;2023-01-15T11:35:21;12.56;65.62
74178;DHT22;62540;48.456;-4.456;2023-01-15T11:37:46;12.58;64.67
74178;DHT22;62540;48.456;-4.456;2023-01-15T11:40:17;12.65;64.33
74178;DHT22;62540;48.456;-4.456;2023-01-15T11:42:47;12.82;63.53
74178;DHT22;62540;48.456;-4.456;2023-01-15T11:45:31;12.96;61.61
74178;DHT22;62540;48.456;-4.456;2023-01-15T11:48:18;12.97;61.66
74178;DHT22;62540;48.456;-4.456;2023-01-15T11:51:06;12.99;58.56
74178;DHT22;62540;48.456;-4.456;2023-01-15T11:53:37;12.85;57.58
74178;DHT22;62540;48.456;-4.456;2023-01-15T11:56:05;12.75;59.13
74178;DHT22;62540;48.456;-4.456;2023-01-15T11:58:43;12.66;58.97
74178;DHT22;62540;48.456;-4.456;2023-01-15T12:01:22;12.71;58.00
74178;DHT22;62540;48.456;-4.456;2023-01-15T12:03:53;12.68;59.66
74178;DHT22;62540;48.456;-4.456;2023-01-15T12:06:20;12.65;58.55
74178;DHT22;62540;48.456;-4.456;2023-01-15T12:22:40;12.86;59.88
74178;DHT22;62540;48.456;-4.456;2023-01-15T12:26:00;12.86;60.08
74178;DHT22;62540;48.456;-4.456;2023-01-15T12:33:19;13.24;60.59
74178;DHT22;62540;48.456;-4.456;2023-01-15T12:35:52;13.39;60.95
74178;DHT22;62540;48.456;-4.456;2023-01-15T12:38:35;13.47;60.30
74178;DHT22;62540;48.456;-4.456;2023-01-15T12:41:23;13.61;59.10
74178;DHT22;62540;48.456;-4.456;2023-01-15T12:43:53;13.53;57.76
74178;DHT22;62540;48.456;-4.456;2023-01-15T12:46:41;13.50;57.77
74178;DHT22;62540;48.456;-4.456;2023-01-15T12:49:29;13.30;56.62
74178;DHT22;62540;48.456;-4.456;2023-01-15T12:52:04;13.17;57.96
74178;DHT22;62540;48.456;-4.456;2023-01-15T12:54:40;13.39;58.99
74178;DHT22;62540;48.456;-4.456;2023-01-15T12:57:17;13.43;59.08
74178;DHT22;62540;48.456;-4.456;2023-01-15T13:00:00;13.37;59.08
74178;DHT22;62540;48.456;-4.456;2023-01-15T13:02:41;13.40;59.35
74178;DHT22;62540;48.456;-4.456;2023-01-15T13:08:32;13.62;60.20
74178;DHT22;62540;48.456;-4.456;2023-01-15T13:10:53;13.60;59.22
74178;DHT22;62540;48.456;-4.456;2023-01-15T13:13:25;13.54;59.38
74178;DHT22;62540;48.456;-4.456;2023-01-15T13:16:17;13.36;59.76
74178;DHT22;62540;48.456;-4.456;2023-01-15T13:21:15;13.20;59.39
74178;DHT22;62540;48.456;-4.456;2023-01-15T13:37:28;12.72;62.02
74178;DHT22;62540;48.456;-4.456;2023-01-15T13:40:02;12.63;62.80
74178;DHT22;62540;48.456;-4.456;2023-01-15T13:42:30;12.55;61.93
74178;DHT22;62540;48.456;-4.456;2023-01-15T13:44:56;12.48;60.94
74178;DHT22;62540;48.456;-4.456;2023-01-15T13:47:24;12.38;60.10
74178;DHT22;62540;48.456;-4.456;2023-01-15T13:49:54;12.34;61.28
74178;DHT22;62540;48.456;-4.456;2023-01-15T13:52:27;12.25;61.68
74178;DHT22;62540;48.456;-4.456;2023-01-15T13:54:55;12.31;62.23
74178;DHT22;62540;48.456;-4.456;2023-01-15T13:57:30;12.38;62.18
74178;DHT22;62540;48.456;-4.456;2023-01-15T13:59:57;12.45;62.02
74178;DHT22;62540;48.456;-4.456;2023-01-15T14:04:48;12.28;60.13
74178;DHT22;62540;48.456;-4.456;2023-01-15T14:07:29;12.35;60.46
74178;DHT22;62540;48.456;-4.456;2023-01-15T14:16:14;12.24;59.57
74178;DHT22;62540;48.456;-4.456;2023-01-15T14:21:32;12.20;61.10
74178;DHT22;62540;48.456;-4.456;2023-01-15T14:24:40;12.14;61.64
74178;DHT22;62540;48.456;-4.456;2023-01-15T14:29:48;12.07;62.62
74178;DHT22;62540;48.456;-4.456;2023-01-15T14:34:57;12.04;62.95
74178;DHT22;62540;48.456;-4.456;2023-01-15T14:37:44;12.04;63.31
74178;DHT22;62540;48.456;-4.456;2023-01-15T14:40:51;11.89;63.42
74178;DHT22;62540;48.456;-4.456;2023-01-15T14:43:19;11.84;63.78
74178;DHT22;62540;48.456;-4.456;2023-01-15T14:45:46;11.82;64.13
74178;DHT22;62540;48.456;-4.456;2023-01-15T14:48:18;11.79;63.84
74178;DHT22;62540;48.456;-4.456;2023-01-15T14:50:46;11.76;63.77
74178;DHT22;62540;48.456;-4.456;2023-01-15T15:01:34;11.63;64.84
74178;DHT22;62540;48.456;-4.456;2023-01-15T15:04:36;11.65;64.97
74178;DHT22;62540;48.456;-4.456;2023-01-15T15:07:18;11.67;65.40
74178;DHT22;62540;48.456;-4.456;2023-01-15T15:09:53;11.66;65.13
74178;DHT22;62540;48.456;-4.456;2023-01-15T15:17:58;11.63;65.36
74178;DHT22;62540;48.456;-4.456;2023-01-15T15:26:03;11.62;65.58
74178;DHT22;62540;48.456;-4.456;2023-01-15T15:28:28;11.58;65.35
74178;DHT22;62540;48.456;-4.456;2023-01-15T15:30:55;11.58;65.28
74178;DHT22;62540;48.456;-4.456;2023-01-15T15:33:30;11.61;65.41
74178;DHT22;62540;48.456;-4.456;2023-01-15T15:35:58;11.56;65.32
74178;DHT22;62540;48.456;-4.456;2023-01-15T15:38:25;11.56;65.63
74178;DHT22;62540;48.456;-4.456;2023-01-15T15:40:54;11.51;65.96
74178;DHT22;62540;48.456;-4.456;2023-01-15T15:46:23;11.47;64.96
74178;DHT22;62540;48.456;-4.456;2023-01-15T15:49:07;11.46;65.24
74178;DHT22;62540;48.456;-4.456;2023-01-15T15:51:43;11.39;65.24
74178;DHT22;62540;48.456;-4.456;2023-01-15T15:56:38;11.34;65.58
74178;DHT22;62540;48.456;-4.456;2023-01-15T15:59:05;11.40;65.73
74178;DHT22;62540;48.456;-4.456;2023-01-15T16:01:37;11.39;65.89
74178;DHT22;62540;48.456;-4.456;2023-01-15T16:04:03;11.40;66.08
74178;DHT22;62540;48.456;-4.456;2023-01-15T16:06:29;11.40;66.20
74178;DHT22;62540;48.456;-4.456;2023-01-15T16:08:57;11.32;66.48
74178;DHT22;62540;48.456;-4.456;2023-01-15T16:11:26;11.31;66.51
74178;DHT22;62540;48.456;-4.456;2023-01-15T16:13:53;11.29;66.51
74178;DHT22;62540;48.456;-4.456;2023-01-15T16:16:20;11.25;65.86
74178;DHT22;62540;48.456;-4.456;2023-01-15T16:18:51;11.19;65.26
74178;DHT22;62540;48.456;-4.456;2023-01-15T16:21:35;11.12;65.12
74178;DHT22;62540;48.456;-4.456;2023-01-15T16:24:03;11.10;64.94
74178;DHT22;62540;48.456;-4.456;2023-01-15T16:26:36;11.03;65.12
74178;DHT22;62540;48.456;-4.456;2023-01-15T16:29:04;11.01;65.16
74178;DHT22;62540;48.456;-4.456;2023-01-15T16:31:35;10.95;65.08
74178;DHT22;62540;48.456;-4.456;2023-01-15T16:34:01;10.98;65.06
74178;DHT22;62540;48.456;-4.456;2023-01-15T16:36:37;10.91;64.96
74178;DHT22;62540;48.456;-4.456;2023-01-15T16:39:04;10.88;65.43
74178;DHT22;62540;48.456;-4.456;2023-01-15T16:41:37;10.84;66.04
74178;DHT22;62540;48.456;-4.456;2023-01-15T16:44:05;10.81;66.67
74178;DHT22;62540;48.456;-4.456;2023-01-15T16:46:38;10.77;67.46
74178;DHT22;62540;48.456;-4.456;2023-01-15T16:51:45;10.76;68.87
74178;DHT22;62540;48.456;-4.456;2023-01-15T16:57:11;10.66;68.92
74178;DHT22;62540;48.456;-4.456;2023-01-15T16:59:56;10.66;68.80
74178;DHT22;62540;48.456;-4.456;2023-01-15T17:02:22;10.66;69.47
74178;DHT22;62540;48.456;-4.456;2023-01-15T17:04:49;10.59;69.80
74178;DHT22;62540;48.456;-4.456;2023-01-15T17:07:32;10.59;69.70
74178;DHT22;62540;48.456;-4.456;2023-01-15T17:09:59;10.56;70.79
74178;DHT22;62540;48.456;-4.456;2023-01-15T17:12:35;10.55;70.73
74178;DHT22;62540;48.456;-4.456;2023-01-15T17:17:47;10.42;72.88
74178;DHT22;62540;48.456;-4.456;2023-01-15T17:20:15;10.32;73.67
74178;DHT22;62540;48.456;-4.456;2023-01-15T17:22:42;10.26;74.49
74178;DHT22;62540;48.456;-4.456;2023-01-15T17:25:41;10.23;74.62
74178;DHT22;62540;48.456;-4.456;2023-01-15T17:28:08;10.23;75.22
74178;DHT22;62540;48.456;-4.456;2023-01-15T17:30:36;10.25;75.11
74178;DHT22;62540;48.456;-4.456;2023-01-15T17:33:06;10.26;75.46
74178;DHT22;62540;48.456;-4.456;2023-01-15T17:35:36;10.26;74.66
74178;DHT22;62540;48.456;-4.456;2023-01-15T17:38:02;10.30;74.64
74178;DHT22;62540;48.456;-4.456;2023-01-15T17:40:29;10.32;74.32
74178;DHT22;62540;48.456;-4.456;2023-01-15T17:42:54;10.35;73.94
74178;DHT22;62540;48.456;-4.456;2023-01-15T17:45:22;10.39;73.81
74178;DHT22;62540;48.456;-4.456;2023-01-15T17:47:48;10.42;73.78
74178;DHT22;62540;48.456;-4.456;2023-01-15T17:50:15;10.42;74.88
74178;DHT22;62540;48.456;-4.456;2023-01-15T17:52:41;10.39;76.24
74178;DHT22;62540;48.456;-4.456;2023-01-15T17:55:12;10.43;76.26
74178;DHT22;62540;48.456;-4.456;2023-01-15T17:57:56;10.42;76.40
74178;DHT22;62540;48.456;-4.456;2023-01-15T18:00:40;10.40;76.61
74178;DHT22;62540;48.456;-4.456;2023-01-15T18:03:25;10.28;77.28
74178;DHT22;62540;48.456;-4.456;2023-01-15T18:06:11;10.23;77.34
74178;DHT22;62540;48.456;-4.456;2023-01-15T18:08:38;10.19;77.85
74178;DHT22;62540;48.456;-4.456;2023-01-15T18:11:05;10.20;78.44
74178;DHT22;62540;48.456;-4.456;2023-01-15T18:13:30;10.16;79.31